createdAt,value
2023-11-23T00:01:25.053Z,12.07
2023-11-23T00:04:27.152Z,11.45
2023-11-23T00:07:28.911Z,10.68
2023-11-23T00:10:30.704Z,11.30
2023-11-23T00:13:32.484Z,12.97
2023-11-23T00:16:34.282Z,15.88
2023-11-23T00:19:36.010Z,11.00
2023-11-23T00:22:38.063Z,10.25
2023-11-23T00:25:39.838Z,10.33
2023-11-23T00:28:41.720Z,11.63
2023-11-23T00:31:43.517Z,10.75
2023-11-23T00:34:45.391Z,11.40
2023-11-23T00:37:47.142Z,12.82
2023-11-23T00:40:49.001Z,10.47
2023-11-23T00:43:51.412Z,9.07
2023-11-23T00:46:53.259Z,10.77
2023-11-23T00:49:55.358Z,10.77
2023-11-23T00:52:57.118Z,11.52
2023-11-23T00:55:58.909Z,12.43
2023-11-23T00:59:00.663Z,16.10
2023-11-23T01:02:03.474Z,10.82
2023-11-23T01:05:05.786Z,9.30
2023-11-23T01:08:07.623Z,14.20
2023-11-23T01:11:10.534Z,10.43
2023-11-23T01:14:12.312Z,11.43
2023-11-23T01:17:14.204Z,15.18
2023-11-23T01:20:16.093Z,14.02
2023-11-23T01:23:18.051Z,12.07
2023-11-23T01:26:19.859Z,13.70
2023-11-23T01:29:21.568Z,13.13
2023-11-23T01:32:23.433Z,16.15
2023-11-23T01:35:25.218Z,11.18
2023-11-23T01:38:27.896Z,12.98
2023-11-23T01:41:29.713Z,12.83
2023-11-23T01:44:31.850Z,19.17
2023-11-23T01:47:34.551Z,11.40
2023-11-23T01:50:36.843Z,13.68
2023-11-23T01:53:38.562Z,11.52
2023-11-23T01:56:41.240Z,14.00
2023-11-23T01:59:43.065Z,10.20
2023-11-23T02:02:45.041Z,13.98
2023-11-23T02:05:47.578Z,12.35
2023-11-23T02:08:49.803Z,11.52
2023-11-23T02:11:51.786Z,11.80
2023-11-23T02:14:54.886Z,8.53
2023-11-23T02:18:03.447Z,12.15
2023-11-23T02:21:05.776Z,12.15
2023-11-23T02:24:09.487Z,16.13
2023-11-23T02:27:12.093Z,13.90
2023-11-23T02:30:14.446Z,13.27
2023-11-23T02:33:16.557Z,14.30
2023-11-23T02:36:18.395Z,15.82
2023-11-23T02:39:20.243Z,17.35
2023-11-23T02:42:22.132Z,19.83
2023-11-23T02:45:24.033Z,14.63
2023-11-23T02:48:25.958Z,14.02
2023-11-23T02:51:27.855Z,12.52
2023-11-23T02:54:29.666Z,16.42
2023-11-23T02:57:31.490Z,11.87
2023-11-23T03:00:35.112Z,13.50
2023-11-23T03:03:37.019Z,14.23
2023-11-23T03:06:38.911Z,21.35
2023-11-23T03:09:40.694Z,15.85
2023-11-23T03:12:42.528Z,16.63
2023-11-23T03:15:44.264Z,17.20
2023-11-23T03:18:46.229Z,23.52
2023-11-23T03:21:48.227Z,24.52
2023-11-23T03:24:52.938Z,22.30
2023-11-23T03:27:54.793Z,15.43
2023-11-23T03:30:56.618Z,16.70
2023-11-23T03:33:58.414Z,18.05
2023-11-23T03:37:00.171Z,18.40
2023-11-23T03:40:03.161Z,12.57
2023-11-23T03:43:05.187Z,16.47
2023-11-23T03:46:06.978Z,16.93
2023-11-23T03:49:09.105Z,14.55
2023-11-23T03:52:10.910Z,11.68
2023-11-23T03:55:12.802Z,14.10
2023-11-23T03:58:15.570Z,17.23
2023-11-23T04:01:18.318Z,21.40
2023-11-23T04:04:20.437Z,14.88
2023-11-23T04:07:22.158Z,14.95
2023-11-23T04:10:23.876Z,13.80
2023-11-23T04:13:26.181Z,16.23
2023-11-23T04:16:27.989Z,20.03
2023-11-23T04:19:29.787Z,14.77
2023-11-23T04:22:31.528Z,14.20
2023-11-23T04:25:35.291Z,11.43
2023-11-23T04:28:37.229Z,15.60
2023-11-23T04:31:39.007Z,19.57
2023-11-23T04:34:40.928Z,12.25
2023-11-23T04:37:42.758Z,17.77
2023-11-23T04:40:44.558Z,14.90
2023-11-23T04:43:46.406Z,14.23
2023-11-23T04:46:48.509Z,19.43
2023-11-23T04:49:50.732Z,14.13
2023-11-23T04:52:52.495Z,17.17
2023-11-23T04:55:54.713Z,12.80
2023-11-23T04:58:56.505Z,19.33
2023-11-23T05:01:58.346Z,16.00
2023-11-23T05:05:00.515Z,17.98
2023-11-23T05:08:02.436Z,15.98
2023-11-23T05:11:04.741Z,12.55
2023-11-23T05:14:07.641Z,18.50
2023-11-23T05:17:09.383Z,14.23
2023-11-23T05:20:11.587Z,20.23
2023-11-23T05:23:13.409Z,13.95
2023-11-23T05:26:15.265Z,16.52
2023-11-23T05:29:17.205Z,13.90
2023-11-23T05:32:19.831Z,14.90
2023-11-23T05:35:21.829Z,16.73
2023-11-23T05:38:23.756Z,15.48
2023-11-23T05:41:25.564Z,17.60
2023-11-23T05:44:27.673Z,19.57
2023-11-23T05:47:29.434Z,14.20
2023-11-23T05:50:31.371Z,15.38
2023-11-23T05:53:33.124Z,14.52
2023-11-23T05:56:35.119Z,16.25
2023-11-23T05:59:37.910Z,15.63
2023-11-23T06:02:40.365Z,14.67
2023-11-23T06:05:42.258Z,18.80
2023-11-23T06:08:44.026Z,19.92
2023-11-23T06:11:45.892Z,16.63
2023-11-23T06:14:48.016Z,14.23
2023-11-23T06:17:58.613Z,19.07
2023-11-23T06:21:06.510Z,15.25
2023-11-23T06:24:08.587Z,23.45
2023-11-23T06:27:11.564Z,13.95
2023-11-23T06:30:13.715Z,20.27
2023-11-23T06:33:15.654Z,14.93
2023-11-23T06:36:17.674Z,16.52
2023-11-23T06:39:25.504Z,10.18
2023-11-23T06:42:27.384Z,15.30
2023-11-23T06:45:29.323Z,13.83
2023-11-23T06:48:31.162Z,16.50
2023-11-23T06:51:33.065Z,15.43
2023-11-23T06:54:34.974Z,15.68
2023-11-23T06:57:47.655Z,16.25
2023-11-23T07:00:49.407Z,18.50
2023-11-23T07:03:51.806Z,18.77
2023-11-23T07:06:53.562Z,15.18
2023-11-23T07:09:55.337Z,14.40
2023-11-23T07:12:57.104Z,15.88
2023-11-23T07:16:00.824Z,17.93
2023-11-23T07:19:03.147Z,14.93
2023-11-23T07:22:05.135Z,13.38
2023-11-23T07:25:10.049Z,15.60
2023-11-23T07:28:12.960Z,16.98
2023-11-23T07:31:14.726Z,18.03
2023-11-23T07:34:16.468Z,14.23
2023-11-23T07:37:18.270Z,14.60
2023-11-23T07:40:19.978Z,17.38
2023-11-23T07:43:22.262Z,19.63
2023-11-23T07:46:25.160Z,16.97
2023-11-23T07:49:27.616Z,18.10
2023-11-23T07:52:29.369Z,14.75
2023-11-23T07:55:32.127Z,15.02
2023-11-23T07:58:33.946Z,15.95
2023-11-23T08:01:35.830Z,17.90
2023-11-23T08:04:38.816Z,10.77
2023-11-23T08:07:40.734Z,16.20
2023-11-23T08:10:42.572Z,15.65
2023-11-23T08:13:44.284Z,15.40
2023-11-23T08:16:46.041Z,13.03
2023-11-23T08:19:48.024Z,16.27
2023-11-23T08:22:49.838Z,16.73
2023-11-23T08:25:51.568Z,20.73
2023-11-23T08:28:53.515Z,17.20
2023-11-23T08:31:55.623Z,23.93
2023-11-23T08:34:58.792Z,21.40
2023-11-23T08:38:02.010Z,18.35
2023-11-23T08:41:03.857Z,16.30
2023-11-23T08:44:06.242Z,22.15
2023-11-23T08:47:08.074Z,29.03
2023-11-23T08:50:10.858Z,30.83
2023-11-23T08:53:12.656Z,26.63
2023-11-23T08:56:15.993Z,24.45
2023-11-23T08:59:19.244Z,25.63
2023-11-23T09:02:21.641Z,22.83
2023-11-23T09:05:23.785Z,27.67
2023-11-23T09:08:26.344Z,24.42
2023-11-23T09:11:28.131Z,23.45
2023-11-23T09:14:37.243Z,20.67
2023-11-23T09:17:42.084Z,21.83
2023-11-23T09:20:45.189Z,26.47
2023-11-23T09:23:47.032Z,21.27
2023-11-23T09:26:48.842Z,28.35
2023-11-23T09:29:51.122Z,27.95
2023-11-23T09:32:53.509Z,26.43
2023-11-23T09:35:55.714Z,26.70
2023-11-23T09:39:01.454Z,25.58
2023-11-23T09:42:07.099Z,27.48
2023-11-23T09:45:12.276Z,30.05
2023-11-23T09:48:15.616Z,24.20
2023-11-23T09:51:17.658Z,29.50
2023-11-23T09:54:20.215Z,30.65
2023-11-23T09:57:22.010Z,28.58
2023-11-23T10:12:28.065Z,24.48
2023-11-23T10:15:30.815Z,25.63
2023-11-23T10:18:36.035Z,27.85
2023-11-23T10:21:39.767Z,28.63
2023-11-23T10:24:50.603Z,27.33
2023-11-23T10:27:56.536Z,27.40
2023-11-23T10:31:03.014Z,25.67
2023-11-23T10:34:05.958Z,26.17
2023-11-23T10:37:08.554Z,25.13
2023-11-23T10:40:13.093Z,26.13
2023-11-23T10:43:16.240Z,23.85
2023-11-23T10:46:19.473Z,27.50
2023-11-23T10:49:21.770Z,26.92
2023-11-23T10:52:24.595Z,22.80
2023-11-23T10:55:26.421Z,23.30
2023-11-23T10:58:32.141Z,27.13
2023-11-23T11:01:35.103Z,25.95
2023-11-23T11:04:38.378Z,22.40
2023-11-23T11:07:40.324Z,22.37
2023-11-23T11:10:52.405Z,24.83
2023-11-23T11:14:00.333Z,21.58
2023-11-23T11:17:07.969Z,16.92
2023-11-23T11:20:20.211Z,16.80
2023-11-23T11:23:24.580Z,16.30
2023-11-23T11:26:29.281Z,20.63
2023-11-23T11:29:34.363Z,15.50
2023-11-23T11:32:41.127Z,24.33
2023-11-23T11:35:47.325Z,25.13
2023-11-23T11:38:56.225Z,22.03
2023-11-23T11:42:01.340Z,19.70
2023-11-23T11:45:09.960Z,21.23
2023-11-23T11:48:11.935Z,21.83
2023-11-23T11:51:13.947Z,28.40
2023-11-23T11:54:15.780Z,17.33
2023-11-23T11:57:19.449Z,27.37
2023-11-23T12:00:22.564Z,25.30
2023-11-23T12:03:25.366Z,22.08
2023-11-23T12:06:29.033Z,19.38
2023-11-23T12:09:38.680Z,25.52
2023-11-23T12:12:49.234Z,20.77
2023-11-23T12:15:57.381Z,21.60
2023-11-23T12:18:59.137Z,22.30
2023-11-23T12:22:03.937Z,22.08
2023-11-23T12:25:06.797Z,21.07
2023-11-23T12:28:09.509Z,24.67
2023-11-23T12:31:11.579Z,23.60
2023-11-23T12:34:13.425Z,23.83
2023-11-23T12:37:15.824Z,31.05
2023-11-23T12:40:17.641Z,24.13
2023-11-23T12:43:19.467Z,17.13
2023-11-23T12:46:21.398Z,21.50
2023-11-23T12:49:23.368Z,25.25
2023-11-23T12:52:25.244Z,19.10
2023-11-23T12:55:27.000Z,24.40
2023-11-23T12:58:28.770Z,18.73
2023-11-23T13:01:36.122Z,18.50
2023-11-23T13:04:38.676Z,17.00
2023-11-23T13:07:40.711Z,21.25
2023-11-23T13:10:42.532Z,21.00
2023-11-23T13:13:44.344Z,20.40
2023-11-23T13:16:46.675Z,28.80
2023-11-23T13:19:49.436Z,24.55
2023-11-23T13:22:51.734Z,22.50
2023-11-23T13:25:53.511Z,21.73
2023-11-23T13:28:58.522Z,18.83
2023-11-23T13:32:00.396Z,17.92
2023-11-23T13:35:02.170Z,16.15
2023-11-23T13:38:03.927Z,18.70
2023-11-23T13:41:09.045Z,17.60
2023-11-23T13:44:12.013Z,17.23
2023-11-23T13:47:14.532Z,22.17
2023-11-23T13:50:18.157Z,27.95
2023-11-23T13:53:20.044Z,25.40
2023-11-23T13:56:23.695Z,20.17
2023-11-23T13:59:25.490Z,22.83
2023-11-23T14:02:27.675Z,21.35
2023-11-23T14:05:30.190Z,19.20
2023-11-23T14:08:32.807Z,25.38
2023-11-23T14:11:36.217Z,19.37
2023-11-23T14:14:38.319Z,20.10
2023-11-23T14:17:40.299Z,15.95
2023-11-23T14:20:44.941Z,23.77
2023-11-23T14:23:50.266Z,24.00
2023-11-23T14:26:53.804Z,36.17
2023-11-23T14:29:55.621Z,36.53
2023-11-23T14:32:57.498Z,29.05
2023-11-23T14:35:59.275Z,29.38
2023-11-23T14:39:01.701Z,26.50
2023-11-23T14:42:04.354Z,25.60
2023-11-23T14:45:06.624Z,23.50
2023-11-23T14:48:09.205Z,23.25
2023-11-23T14:51:11.767Z,25.52
2023-11-23T14:54:17.448Z,34.75
2023-11-23T14:57:23.722Z,34.20
2023-11-23T15:00:25.758Z,26.40
2023-11-23T15:03:27.725Z,33.72
2023-11-23T15:06:30.680Z,15.63
2023-11-23T15:09:32.718Z,20.48
2023-11-23T15:12:34.550Z,19.37
2023-11-23T15:15:37.106Z,17.60
2023-11-23T15:18:39.083Z,10.52
2023-11-23T15:21:43.981Z,13.10
2023-11-23T15:24:47.640Z,11.73
2023-11-23T15:27:52.505Z,10.63
2023-11-23T15:30:54.533Z,12.60
2023-11-23T15:33:57.102Z,14.55
2023-11-23T15:37:02.093Z,12.43
2023-11-23T15:40:06.466Z,12.60
2023-11-23T15:43:09.426Z,13.53
2023-11-23T15:46:13.072Z,12.80
2023-11-23T15:49:15.097Z,15.65
2023-11-23T15:52:16.989Z,10.40
2023-11-23T15:55:19.538Z,12.95
2023-11-23T15:58:21.482Z,15.07
2023-11-23T16:01:23.768Z,16.00
2023-11-23T16:04:27.084Z,12.93
2023-11-23T16:07:29.729Z,15.05
2023-11-23T16:10:31.536Z,15.50
2023-11-23T16:13:33.631Z,12.73
2023-11-23T16:16:35.769Z,14.70
2023-11-23T16:19:39.014Z,13.30
2023-11-23T16:22:40.926Z,17.23
2023-11-23T16:25:42.793Z,14.23
2023-11-23T16:28:45.454Z,11.77
2023-11-23T16:31:47.806Z,15.50
2023-11-23T16:34:49.708Z,13.27
2023-11-23T16:37:51.621Z,18.30
2023-11-23T16:40:53.508Z,14.95
2023-11-23T16:43:55.258Z,15.87
2023-11-23T16:46:57.952Z,12.73
2023-11-23T16:50:01.310Z,14.50
2023-11-23T16:53:05.145Z,13.07
2023-11-23T16:56:08.359Z,13.43
2023-11-23T16:59:11.965Z,13.73
2023-11-23T17:02:15.867Z,15.47
2023-11-23T17:05:18.028Z,17.58
2023-11-23T17:08:20.201Z,16.77
2023-11-23T17:11:22.879Z,12.95
2023-11-23T17:14:25.282Z,15.00
2023-11-23T17:17:27.357Z,14.47
2023-11-23T17:20:30.139Z,13.82
2023-11-23T17:23:34.829Z,18.00
2023-11-23T17:26:37.332Z,16.55
2023-11-23T17:29:39.499Z,18.45
2023-11-23T17:32:44.845Z,17.30
2023-11-23T17:35:47.846Z,20.00
2023-11-23T17:38:50.480Z,17.67
2023-11-23T17:41:54.872Z,15.38
2023-11-23T17:44:57.314Z,13.73
2023-11-23T17:47:59.876Z,14.43
2023-11-23T17:51:01.979Z,13.90
2023-11-23T17:54:06.686Z,11.55
2023-11-23T17:57:09.332Z,15.48
2023-11-23T18:00:14.074Z,16.80
2023-11-23T18:03:16.864Z,20.63
2023-11-23T18:06:19.376Z,22.63
2023-11-23T18:09:22.141Z,16.27
2023-11-23T18:12:25.359Z,21.38
2023-11-23T18:15:32.958Z,24.50
2023-11-23T18:18:36.875Z,24.83
2023-11-23T18:21:39.824Z,22.63
2023-11-23T18:24:42.249Z,22.27
2023-11-23T18:27:45.377Z,23.58
2023-11-23T18:30:52.061Z,24.07
2023-11-23T18:33:56.291Z,23.70
2023-11-23T18:36:58.875Z,21.25
2023-11-23T18:40:13.933Z,29.67
2023-11-23T18:43:16.186Z,25.77
2023-11-23T18:46:19.745Z,23.50
2023-11-23T18:49:26.859Z,25.37
2023-11-23T18:52:29.476Z,26.40
2023-11-23T18:55:33.025Z,18.73
2023-11-23T18:58:35.485Z,27.08
2023-11-23T19:01:38.837Z,21.40
2023-11-23T19:04:41.738Z,21.93
2023-11-23T19:07:44.112Z,25.50
2023-11-23T19:10:49.181Z,22.05
2023-11-23T19:13:51.920Z,23.63
2023-11-23T19:16:54.589Z,23.20
2023-11-23T19:19:57.280Z,24.53
2023-11-23T19:22:59.848Z,28.77
2023-11-23T19:26:06.893Z,26.70
2023-11-23T19:29:11.288Z,24.17
2023-11-23T19:32:19.933Z,20.50
2023-11-23T19:35:22.930Z,20.73
2023-11-23T19:38:27.046Z,21.83
2023-11-23T19:41:30.281Z,23.08
2023-11-23T19:44:33.017Z,16.35
2023-11-23T19:47:35.548Z,20.57
2023-11-23T19:50:39.378Z,14.60
2023-11-23T19:53:43.789Z,27.10
2023-11-23T19:56:48.187Z,27.92
2023-11-23T19:59:50.735Z,19.42
2023-11-23T20:02:54.402Z,22.33
2023-11-23T20:05:59.324Z,21.73
2023-11-23T20:09:04.800Z,29.27
2023-11-23T20:12:07.530Z,20.98
2023-11-23T20:15:10.135Z,23.33
2023-11-23T20:18:13.414Z,22.33
2023-11-23T20:21:15.800Z,19.83
2023-11-23T20:24:19.324Z,21.48
2023-11-23T20:27:21.814Z,20.05
2023-11-23T20:30:24.256Z,21.25
2023-11-23T20:33:27.324Z,22.03
2023-11-23T20:36:29.369Z,22.87
2023-11-23T20:39:33.977Z,21.60
2023-11-23T20:42:36.712Z,22.73
2023-11-23T20:45:39.522Z,21.15
2023-11-23T20:48:42.575Z,23.50
2023-11-23T20:51:45.025Z,15.93
2023-11-23T20:54:47.328Z,16.13
2023-11-23T20:57:49.840Z,20.45
2023-11-23T21:00:51.965Z,19.27
2023-11-23T21:03:54.957Z,27.07
2023-11-23T21:07:01.894Z,20.23
2023-11-23T21:10:05.763Z,24.23
2023-11-23T21:13:07.820Z,22.10
2023-11-23T21:16:09.847Z,24.70
2023-11-23T21:19:11.807Z,18.90
2023-11-23T21:22:13.635Z,22.53
2023-11-23T21:25:15.921Z,19.73
2023-11-23T21:28:17.733Z,18.25
2023-11-23T21:31:19.562Z,21.25
2023-11-23T21:34:21.373Z,17.27
2023-11-23T21:37:23.138Z,19.27
2023-11-23T21:40:25.023Z,21.20
2023-11-23T21:43:26.842Z,23.10
2023-11-23T21:46:28.556Z,20.17
2023-11-23T21:49:30.575Z,17.53
2023-11-23T21:52:33.170Z,18.67
2023-11-23T21:55:38.562Z,15.65
2023-11-23T21:58:40.396Z,24.75
2023-11-23T22:01:42.626Z,23.55
2023-11-23T22:04:45.934Z,22.37
2023-11-23T22:07:47.668Z,22.03
2023-11-23T22:10:49.564Z,19.60
2023-11-23T22:13:51.650Z,22.80
2023-11-23T22:16:55.338Z,17.23
2023-11-23T22:19:57.510Z,17.50
2023-11-23T22:23:00.580Z,19.27
2023-11-23T22:26:02.715Z,17.65
2023-11-23T22:29:04.532Z,22.52
2023-11-23T22:32:07.017Z,18.98
2023-11-23T22:35:09.111Z,19.83
2023-11-23T22:38:11.007Z,21.50
2023-11-23T22:41:13.588Z,19.02
2023-11-23T22:44:15.609Z,19.15
2023-11-23T22:47:17.473Z,19.48
2023-11-23T22:50:19.756Z,20.77
2023-11-23T22:53:21.619Z,22.23
2023-11-23T22:56:23.597Z,15.07
2023-11-23T22:59:25.541Z,16.67
2023-11-23T23:02:27.485Z,17.92
2023-11-23T23:05:29.334Z,15.37
2023-11-23T23:08:31.074Z,16.13
2023-11-23T23:11:34.558Z,17.83
2023-11-23T23:14:38.262Z,20.75
2023-11-23T23:17:40.743Z,15.13
2023-11-23T23:20:42.617Z,14.37
2023-11-23T23:23:44.355Z,17.60
2023-11-23T23:26:46.106Z,19.45
2023-11-23T23:29:48.070Z,20.45
2023-11-23T23:32:49.880Z,15.80
2023-11-23T23:35:51.656Z,14.70
2023-11-23T23:38:53.603Z,16.23
2023-11-23T23:41:55.383Z,17.10
2023-11-23T23:44:57.865Z,14.88
2023-11-23T23:47:59.663Z,16.92
2023-11-23T23:51:01.967Z,16.00
2023-11-23T23:54:04.792Z,10.03
2023-11-23T23:57:06.558Z,13.27
